Time;durP1;ratioP1;P1;durP2;ratioP2;P2;SDS_P1;SDS_P2;PMS_P1;PMS_P2;Temp;Humidity;BMP_temperature;BMP_pressure;BME280_temperature;BME280_humidity;BME280_pressure;Samples;Min_cycle;Max_cycle;Signal;HPM_P1;HPM_P2
2023/07/05 00:01:34;;;;;;;5.97;3.53;;;18.40;99.90;;;;;;5127865;27;20244;-75
2023/07/05 00:04:01;;;;;;;5.23;3.83;;;18.40;99.90;;;;;;5110331;27;20206;-75
2023/07/05 00:06:27;;;;;;;6.03;3.77;;;18.40;99.90;;;;;;5109895;27;20254;-75
2023/07/05 00:08:57;;;;;;;6.97;3.87;;;18.40;99.90;;;;;;5127978;27;20296;-75
2023/07/05 00:11:24;;;;;;;5.43;3.33;;;18.40;99.90;;;;;;5127819;27;20997;-75
2023/07/05 00:13:51;;;;;;;5.40;4.03;;;18.30;99.90;;;;;;5128033;27;20201;-75
2023/07/05 00:16:18;;;;;;;5.07;3.33;;;18.30;99.90;;;;;;5142098;27;20197;-76
2023/07/05 00:18:45;;;;;;;5.70;3.77;;;18.30;99.90;;;;;;5148583;27;20207;-75
2023/07/05 00:21:12;;;;;;;6.00;3.87;;;18.30;99.90;;;;;;5148153;27;20238;-75
2023/07/05 00:23:41;;;;;;;7.60;3.90;;;18.30;99.90;;;;;;5148463;27;20287;-76
2023/07/05 00:26:09;;;;;;;4.10;3.60;;;18.30;99.90;;;;;;5135949;27;20206;-76
2023/07/05 00:28:36;;;;;;;7.77;3.60;;;18.30;99.90;;;;;;5125967;27;20578;-76
2023/07/05 00:31:04;;;;;;;4.70;3.77;;;18.30;99.90;;;;;;5106952;28;20302;-76
2023/07/05 00:33:32;;;;;;;6.40;3.87;;;18.20;99.90;;;;;;5125064;27;20617;-76
2023/07/05 00:35:59;;;;;;;4.37;3.97;;;18.20;99.90;;;;;;5127321;27;20296;-76
2023/07/05 00:38:26;;;;;;;5.90;3.63;;;18.20;99.90;;;;;;5106839;27;20738;-76
2023/07/05 00:40:53;;;;;;;5.33;3.67;;;18.20;99.90;;;;;;5107100;28;20226;-76
2023/07/05 00:43:22;;;;;;;4.93;3.90;;;18.20;99.90;;;;;;5106791;28;20216;-76
2023/07/05 00:45:56;;;;;;;4.43;3.30;;;18.20;99.90;;;;;;5107113;28;20213;-76
2023/07/05 00:48:28;;;;;;;6.20;3.80;;;18.20;99.90;;;;;;5111931;27;20193;-77
2023/07/05 00:50:58;;;;;;;6.00;3.53;;;18.20;99.90;;;;;;5106265;28;20294;-77
2023/07/05 00:53:27;;;;;;;3.77;3.17;;;18.20;99.90;;;;;;5106274;28;20186;-77
2023/07/05 00:56:01;;;;;;;4.53;3.40;;;18.20;99.90;;;;;;5106208;28;20837;-77
2023/07/05 00:58:30;;;;;;;4.87;3.50;;;18.20;99.90;;;;;;5109921;27;20196;-77
2023/07/05 01:00:57;;;;;;;6.20;3.63;;;18.20;99.90;;;;;;5126523;27;20235;-77
2023/07/05 01:03:26;;;;;;;3.53;3.10;;;18.20;99.90;;;;;;5126605;27;20324;-77
2023/07/05 01:05:56;;;;;;;5.37;3.47;;;18.20;99.90;;;;;;5126660;27;20208;-76
2023/07/05 01:08:24;;;;;;;5.30;3.60;;;18.20;99.90;;;;;;5106781;27;20297;-76
2023/07/05 01:10:59;;;;;;;7.83;3.30;;;18.10;99.90;;;;;;5105879;28;20206;-76
2023/07/05 01:13:32;;;;;;;5.23;3.30;;;18.20;99.90;;;;;;5105560;28;20711;-76
2023/07/05 01:16:11;;;;;;;4.47;3.00;;;18.20;99.90;;;;;;5126543;27;20277;-76
2023/07/05 01:18:46;;;;;;;4.87;3.43;;;18.20;99.90;;;;;;5125994;27;20311;-76
2023/07/05 01:21:21;;;;;;;4.70;3.53;;;18.20;99.90;;;;;;5126153;27;20325;-76
2023/07/05 01:24:28;;;;;;;4.13;3.10;;;18.30;99.90;;;;;;5126224;27;20300;-76
2023/07/05 01:27:36;;;;;;;5.73;3.37;;;18.30;99.90;;;;;;5074974;27;20312;-76
2023/07/05 01:30:25;;;;;;;7.20;3.63;;;18.30;99.90;;;;;;5105928;28;20306;-75
2023/07/05 01:32:58;;;;;;;9.63;3.80;;;18.30;99.90;;;;;;5105902;28;20285;-75
2023/07/05 01:35:30;;;;;;;4.33;3.30;;;18.30;99.90;;;;;;5105796;28;20203;-76
2023/07/05 01:37:57;;;;;;;3.30;2.97;;;18.30;99.90;;;;;;5105321;28;20202;-76
2023/07/05 01:41:07;;;;;;;4.10;3.23;;;18.30;99.90;;;;;;5105533;28;20202;-76
2023/07/05 01:43:37;;;;;;;4.20;3.27;;;18.30;99.90;;;;;;5080119;28;20213;-76
2023/07/05 01:46:29;;;;;;;3.17;2.87;;;18.30;99.90;;;;;;5123925;27;20301;-75
2023/07/05 01:49:08;;;;;;;5.07;3.47;;;18.30;99.90;;;;;;5101222;27;20213;-76
2023/07/05 01:51:42;;;;;;;5.63;3.37;;;18.30;99.90;;;;;;5125135;27;20189;-76
2023/07/05 01:54:15;;;;;;;5.57;3.17;;;18.30;99.90;;;;;;5105342;28;20763;-76
2023/07/05 01:56:51;;;;;;;6.43;3.20;;;18.30;99.90;;;;;;5134831;27;20240;-76
2023/07/05 01:59:22;;;;;;;3.63;3.20;;;18.30;99.90;;;;;;5105568;28;20201;-76
2023/07/05 02:01:51;;;;;;;4.50;3.60;;;18.30;99.90;;;;;;5105604;28;20282;-75
2023/07/05 02:04:22;;;;;;;6.87;3.73;;;18.30;99.90;;;;;;5105314;28;20214;-76
2023/07/05 02:06:51;;;;;;;4.13;3.70;;;18.30;99.90;;;;;;5105454;28;20190;-75
2023/07/05 02:09:17;;;;;;;4.03;3.20;;;18.30;99.90;;;;;;5105661;28;20289;-76
2023/07/05 02:11:44;;;;;;;8.37;3.60;;;18.30;99.90;;;;;;5122820;28;20724;-76
2023/07/05 02:14:11;;;;;;;5.47;3.33;;;18.30;99.90;;;;;;5125871;28;20609;-75
2023/07/05 02:16:39;;;;;;;3.30;3.00;;;18.20;99.90;;;;;;5125852;28;20304;-76
2023/07/05 02:19:06;;;;;;;5.20;3.43;;;18.20;99.90;;;;;;5126196;28;20221;-76
2023/07/05 02:21:35;;;;;;;4.97;3.87;;;18.20;99.90;;;;;;5105043;28;20723;-79
2023/07/05 02:24:02;;;;;;;8.63;3.20;;;18.20;99.90;;;;;;5105767;28;20206;-76
2023/07/05 02:26:29;;;;;;;5.67;3.23;;;18.20;99.90;;;;;;5105380;28;20206;-76
2023/07/05 02:28:56;;;;;;;4.17;3.23;;;18.20;99.90;;;;;;5114049;28;20318;-76
2023/07/05 02:31:23;;;;;;;5.93;3.63;;;18.20;99.90;;;;;;5104998;28;20691;-70
2023/07/05 02:33:50;;;;;;;5.50;3.20;;;18.20;99.90;;;;;;5104125;28;20306;-75
2023/07/05 02:36:17;;;;;;;5.23;3.00;;;18.20;99.90;;;;;;5106143;28;20280;-75
2023/07/05 02:38:46;;;;;;;6.77;3.70;;;18.20;99.90;;;;;;5104103;28;20206;-75
2023/07/05 02:41:13;;;;;;;4.50;3.50;;;18.10;99.90;;;;;;5107250;28;20726;-75
2023/07/05 02:43:39;;;;;;;6.63;3.57;;;18.10;99.90;;;;;;5107602;28;20230;-75
2023/07/05 02:46:06;;;;;;;6.23;3.60;;;18.10;99.90;;;;;;5107816;28;20236;-75
2023/07/05 02:48:33;;;;;;;6.83;3.80;;;18.10;99.90;;;;;;5107664;28;20216;-75
2023/07/05 02:51:00;;;;;;;7.40;3.50;;;18.10;99.90;;;;;;5107482;28;20214;-76
2023/07/05 02:53:27;;;;;;;5.73;3.80;;;18.00;99.90;;;;;;5107256;28;20206;-75
2023/07/05 02:55:56;;;;;;;6.60;3.50;;;18.00;99.90;;;;;;5126316;27;20332;-76
2023/07/05 02:58:23;;;;;;;5.07;3.50;;;18.00;99.90;;;;;;5147955;27;20288;-76
2023/07/05 03:00:50;;;;;;;6.93;4.00;;;18.00;99.90;;;;;;5114229;27;20212;-75
2023/07/05 03:03:17;;;;;;;5.03;4.07;;;18.00;99.90;;;;;;5113945;27;20201;-76
2023/07/05 03:05:43;;;;;;;4.97;3.80;;;18.00;99.90;;;;;;5125958;27;20201;-76
2023/07/05 03:08:10;;;;;;;4.73;3.80;;;18.00;99.90;;;;;;5128362;27;20212;-76
2023/07/05 03:10:40;;;;;;;6.43;3.63;;;17.90;99.90;;;;;;5128928;27;20211;-76
2023/07/05 03:13:08;;;;;;;5.07;3.43;;;17.90;99.90;;;;;;5129001;27;20216;-76
2023/07/05 03:15:35;;;;;;;3.77;3.23;;;17.90;99.90;;;;;;5128696;27;20283;-75
2023/07/05 03:18:02;;;;;;;4.80;3.40;;;17.90;99.90;;;;;;5129006;27;20211;-75
2023/07/05 03:20:29;;;;;;;7.07;3.70;;;17.90;99.90;;;;;;5128760;27;20291;-76
2023/07/05 03:22:56;;;;;;;4.87;3.40;;;17.90;99.90;;;;;;5128309;27;20233;-75
2023/07/05 03:25:23;;;;;;;3.43;3.13;;;17.90;99.90;;;;;;5128540;27;20768;-76
2023/07/05 03:27:50;;;;;;;7.77;3.57;;;17.90;99.90;;;;;;5128167;27;20770;-75
2023/07/05 03:30:18;;;;;;;5.63;3.63;;;17.90;99.90;;;;;;5128097;27;20207;-75
2023/07/05 03:32:45;;;;;;;7.07;3.47;;;17.90;99.90;;;;;;5128279;27;20201;-76
2023/07/05 03:35:13;;;;;;;4.03;3.33;;;17.90;99.90;;;;;;5128331;27;20205;-76
2023/07/05 03:37:40;;;;;;;5.60;3.43;;;17.90;99.90;;;;;;5120007;27;20318;-75
2023/07/05 03:40:08;;;;;;;5.87;3.30;;;17.90;99.90;;;;;;5108177;28;20266;-75
2023/07/05 03:42:37;;;;;;;4.27;3.30;;;17.90;99.90;;;;;;5107601;28;20234;-75
2023/07/05 03:45:05;;;;;;;4.37;3.30;;;17.90;99.90;;;;;;5108140;28;20210;-76
2023/07/05 03:47:33;;;;;;;4.60;3.37;;;17.90;99.90;;;;;;5107525;28;20297;-75
2023/07/05 03:50:00;;;;;;;4.57;3.10;;;18.00;99.90;;;;;;5107313;28;20218;-75
2023/07/05 03:52:27;;;;;;;5.87;3.70;;;18.00;99.90;;;;;;5107344;28;20202;-75
2023/07/05 03:54:54;;;;;;;3.60;3.30;;;18.00;99.90;;;;;;5107473;28;20206;-76
2023/07/05 03:57:21;;;;;;;6.83;2.90;;;18.00;99.90;;;;;;5107068;28;20328;-75
2023/07/05 03:59:48;;;;;;;5.37;3.23;;;18.00;99.90;;;;;;5108878;27;20213;-75
2023/07/05 04:02:15;;;;;;;5.43;2.93;;;18.00;99.90;;;;;;5128287;27;20662;-76
2023/07/05 04:04:44;;;;;;;3.63;3.33;;;18.10;99.90;;;;;;5127985;27;20205;-75
2023/07/05 04:07:11;;;;;;;5.40;3.07;;;18.10;99.90;;;;;;5128104;27;20214;-75
2023/07/05 04:09:38;;;;;;;5.03;3.57;;;18.10;99.90;;;;;;5127590;27;20207;-75
2023/07/05 04:12:05;;;;;;;5.63;3.10;;;18.10;99.90;;;;;;5128102;27;20304;-75
2023/07/05 04:14:32;;;;;;;4.17;3.10;;;18.10;99.90;;;;;;5127794;27;20304;-76
2023/07/05 04:16:59;;;;;;;6.63;3.20;;;18.10;99.90;;;;;;5127923;27;20781;-75
2023/07/05 04:19:26;;;;;;;4.57;3.27;;;18.20;99.90;;;;;;5128192;27;20205;-75
2023/07/05 04:21:55;;;;;;;4.20;3.30;;;18.10;99.90;;;;;;5127769;27;20232;-76
2023/07/05 04:24:22;;;;;;;5.47;3.47;;;18.10;99.90;;;;;;5127933;27;20292;-76
2023/07/05 04:26:48;;;;;;;5.30;3.27;;;18.20;99.90;;;;;;5145848;27;20230;-75
2023/07/05 04:29:15;;;;;;;3.83;3.13;;;18.10;99.90;;;;;;5142210;27;20560;-76
2023/07/05 04:31:42;;;;;;;3.97;3.63;;;18.10;99.90;;;;;;5127269;27;20671;-76
2023/07/05 04:34:09;;;;;;;6.60;3.40;;;18.20;99.90;;;;;;5114022;27;20669;-75
2023/07/05 04:36:36;;;;;;;4.77;3.00;;;18.20;99.90;;;;;;5106196;28;20375;-75
2023/07/05 04:39:04;;;;;;;5.67;3.27;;;18.20;99.90;;;;;;5106554;28;20208;-75
2023/07/05 04:41:31;;;;;;;3.90;3.20;;;18.30;99.90;;;;;;5106275;28;20216;-76
2023/07/05 04:43:58;;;;;;;4.90;3.07;;;18.30;99.90;;;;;;5106413;28;20673;-75
2023/07/05 04:46:25;;;;;;;4.73;3.13;;;18.30;99.90;;;;;;5106112;28;20210;-76
2023/07/05 04:48:52;;;;;;;4.40;3.30;;;18.40;99.90;;;;;;5106379;28;20245;-75
2023/07/05 04:51:19;;;;;;;4.57;3.40;;;18.40;99.90;;;;;;5106039;28;20210;-76
2023/07/05 04:53:46;;;;;;;6.07;3.13;;;18.40;99.90;;;;;;5136309;27;20642;-76
2023/07/05 04:56:15;;;;;;;4.50;3.17;;;18.40;99.90;;;;;;5137437;27;20269;-76
2023/07/05 04:58:42;;;;;;;4.87;3.40;;;18.40;99.90;;;;;;5147429;27;20212;-75
2023/07/05 05:01:10;;;;;;;4.77;3.40;;;18.40;99.90;;;;;;5146912;27;20538;-75
2023/07/05 05:03:37;;;;;;;4.60;3.20;;;18.40;99.90;;;;;;5121970;27;20451;-76
2023/07/05 05:06:04;;;;;;;4.30;3.27;;;18.40;99.90;;;;;;5106602;28;20233;-75
2023/07/05 05:08:32;;;;;;;4.97;3.30;;;18.40;99.90;;;;;;5106300;28;20216;-76
2023/07/05 05:11:00;;;;;;;4.03;3.70;;;18.40;99.90;;;;;;5106429;28;20210;-76
2023/07/05 05:13:30;;;;;;;5.93;3.33;;;18.50;99.90;;;;;;5105836;28;20217;-75
2023/07/05 05:15:57;;;;;;;4.30;3.60;;;18.40;99.90;;;;;;5105842;28;20263;-75
2023/07/05 05:18:26;;;;;;;4.33;3.93;;;18.50;99.90;;;;;;5105712;28;20257;-75
2023/07/05 05:20:53;;;;;;;4.73;3.73;;;18.50;99.90;;;;;;5105680;28;20282;-75
2023/07/05 05:23:19;;;;;;;3.90;3.37;;;18.50;99.90;;;;;;5105348;28;20225;-75
2023/07/05 05:25:48;;;;;;;3.87;3.53;;;18.60;99.90;;;;;;5123422;27;20214;-75
2023/07/05 05:28:16;;;;;;;7.73;3.77;;;18.60;99.90;;;;;;5147199;27;20235;-75
2023/07/05 05:30:45;;;;;;;5.27;4.07;;;18.60;99.90;;;;;;5120540;27;20313;-75
2023/07/05 05:33:14;;;;;;;5.80;3.70;;;18.70;99.90;;;;;;5105827;28;20304;-75
2023/07/05 05:35:47;;;;;;;4.80;3.47;;;18.70;99.90;;;;;;5105848;28;20527;-75
2023/07/05 05:38:14;;;;;;;5.03;3.33;;;18.70;99.90;;;;;;5106013;28;20218;-75
2023/07/05 05:40:40;;;;;;;5.10;3.63;;;18.70;99.90;;;;;;5106189;28;20229;-75
2023/07/05 05:43:07;;;;;;;4.83;3.50;;;18.70;99.90;;;;;;5106013;28;20325;-75
2023/07/05 05:45:35;;;;;;;4.60;4.17;;;18.80;99.90;;;;;;5105743;28;20201;-75
2023/07/05 05:48:03;;;;;;;5.93;4.07;;;18.70;99.90;;;;;;5106113;28;20236;-76
2023/07/05 05:50:30;;;;;;;8.83;4.57;;;18.70;99.90;;;;;;5124642;27;20395;-75
2023/07/05 05:52:57;;;;;;;5.90;3.83;;;18.80;99.90;;;;;;5125877;27;20209;-75
2023/07/05 05:55:24;;;;;;;5.20;3.80;;;18.80;99.90;;;;;;5131326;27;20205;-74
2023/07/05 05:57:51;;;;;;;6.97;3.73;;;18.80;99.90;;;;;;5146646;27;20193;-75
2023/07/05 06:00:18;;;;;;;4.73;3.73;;;18.80;99.90;;;;;;5130303;27;20205;-75
2023/07/05 06:02:45;;;;;;;5.00;4.03;;;18.80;99.90;;;;;;5125848;28;20286;-75
2023/07/05 06:05:13;;;;;;;4.97;4.20;;;18.80;99.90;;;;;;5125888;28;20285;-75
2023/07/05 06:07:41;;;;;;;8.77;4.63;;;18.90;99.90;;;;;;5111764;28;20218;-75
2023/07/05 06:10:09;;;;;;;6.43;4.20;;;18.90;99.90;;;;;;5105576;28;20300;-75
2023/07/05 06:12:41;;;;;;;8.93;4.57;;;18.90;99.90;;;;;;5106257;28;20214;-75
2023/07/05 06:15:09;;;;;;;7.10;4.60;;;19.00;99.90;;;;;;5109811;28;20222;-75
2023/07/05 06:17:36;;;;;;;6.43;4.33;;;19.00;99.90;;;;;;5109265;28;20208;-75
2023/07/05 06:20:05;;;;;;;7.27;4.67;;;19.00;99.90;;;;;;5129138;27;20948;-75
2023/07/05 06:22:33;;;;;;;7.47;4.40;;;19.00;99.90;;;;;;5128940;27;20702;-75
2023/07/05 06:25:00;;;;;;;11.30;4.90;;;19.00;99.90;;;;;;5129737;27;20216;-75
2023/07/05 06:27:27;;;;;;;5.40;4.90;;;19.00;99.90;;;;;;5115220;27;20325;-76
2023/07/05 06:29:54;;;;;;;5.30;4.80;;;19.10;99.90;;;;;;5109301;28;20263;-75
2023/07/05 06:32:21;;;;;;;5.40;4.50;;;19.10;99.90;;;;;;5109392;28;20304;-75
2023/07/05 06:34:48;;;;;;;6.37;5.00;;;19.10;99.90;;;;;;5109645;28;20244;-76
2023/07/05 06:37:16;;;;;;;7.97;5.50;;;19.20;99.90;;;;;;5119226;27;20659;-76
2023/07/05 06:39:44;;;;;;;8.70;5.17;;;19.20;99.90;;;;;;5129616;27;20229;-75
2023/07/05 06:42:11;;;;;;;6.20;5.03;;;19.30;99.90;;;;;;5130018;27;20209;-75
2023/07/05 06:44:37;;;;;;;8.20;5.37;;;19.30;99.90;;;;;;5130547;27;20365;-76
2023/07/05 06:47:05;;;;;;;5.40;4.93;;;19.30;99.90;;;;;;5150306;27;20947;-75
2023/07/05 06:49:32;;;;;;;7.50;5.33;;;19.40;99.90;;;;;;5140696;27;20590;-75
2023/07/05 06:51:59;;;;;;;6.10;5.50;;;19.40;99.90;;;;;;5129365;27;20217;-75
2023/07/05 06:54:26;;;;;;;6.40;5.70;;;19.40;99.90;;;;;;5129639;27;20300;-75
2023/07/05 06:56:55;;;;;;;6.43;5.80;;;19.50;99.90;;;;;;5147293;27;20758;-75
2023/07/05 06:59:22;;;;;;;6.63;5.97;;;19.50;99.90;;;;;;5142112;27;20262;-75
2023/07/05 07:01:49;;;;;;;7.80;6.07;;;19.60;99.90;;;;;;5129576;27;20209;-75
2023/07/05 07:04:16;;;;;;;8.20;6.13;;;19.60;99.90;;;;;;5129607;27;20243;-75
2023/07/05 07:06:43;;;;;;;11.90;6.47;;;19.60;99.90;;;;;;5123989;27;20227;-75
2023/07/05 07:09:12;;;;;;;8.97;6.37;;;19.70;99.90;;;;;;5109018;28;20305;-75
2023/07/05 07:11:39;;;;;;;8.00;6.40;;;19.80;99.90;;;;;;5109022;28;20210;-75
2023/07/05 07:14:07;;;;;;;8.10;6.03;;;19.80;99.90;;;;;;5109133;28;20206;-75
2023/07/05 07:16:34;;;;;;;7.10;6.30;;;19.90;99.90;;;;;;5108789;28;20256;-75
2023/07/05 07:19:01;;;;;;;11.57;6.40;;;19.90;99.90;;;;;;5120459;27;20205;-75
2023/07/05 07:21:28;;;;;;;10.80;7.00;;;20.00;99.90;;;;;;5129055;27;20211;-75
2023/07/05 07:23:55;;;;;;;6.87;6.27;;;20.10;99.90;;;;;;5113131;27;20582;-75
2023/07/05 07:26:23;;;;;;;7.23;6.57;;;20.10;99.90;;;;;;5135632;27;20606;-75
2023/07/05 07:28:53;;;;;;;11.13;6.63;;;20.20;99.90;;;;;;5147179;27;20262;-75
2023/07/05 07:31:24;;;;;;;11.10;7.40;;;20.20;99.90;;;;;;5128523;27;20738;-75
2023/07/05 07:33:51;;;;;;;8.83;7.70;;;20.20;99.90;;;;;;5128918;27;20194;-75
2023/07/05 07:36:21;;;;;;;9.90;7.27;;;20.30;99.90;;;;;;5128532;27;20229;-75
2023/07/05 07:38:48;;;;;;;8.60;7.30;;;20.30;99.90;;;;;;5128663;27;20304;-75
2023/07/05 07:41:17;;;;;;;10.43;7.80;;;20.40;99.90;;;;;;5128568;27;20197;-75
2023/07/05 07:43:45;;;;;;;10.37;7.80;;;20.40;99.90;;;;;;5128737;27;20264;-75
2023/07/05 07:46:14;;;;;;;10.60;8.20;;;20.50;99.90;;;;;;5128862;27;20289;-75
2023/07/05 07:48:46;;;;;;;11.80;8.30;;;20.50;99.90;;;;;;5128629;27;20233;-75
2023/07/05 07:51:13;;;;;;;11.00;8.00;;;20.50;99.90;;;;;;5128387;27;20221;-75
2023/07/05 07:53:40;;;;;;;8.55;7.65;;;20.60;99.90;;;;;;5128465;27;20325;-76
2023/07/05 07:56:12;;;;;;;11.30;8.27;;;20.60;99.90;;;;;;5139166;27;20332;-75
2023/07/05 07:58:39;;;;;;;9.77;8.40;;;20.60;99.90;;;;;;5148915;27;21051;-76
2023/07/05 08:01:13;;;;;;;10.10;9.00;;;20.70;99.90;;;;;;5148760;27;20659;-76
2023/07/05 08:03:42;;;;;;;10.63;9.53;;;20.70;99.90;;;;;;5148844;27;20258;-75
2023/07/05 08:06:09;;;;;;;10.48;9.05;;;20.80;99.90;;;;;;5148275;27;20211;-76
2023/07/05 08:08:37;;;;;;;10.82;9.63;;;20.90;99.90;;;;;;5148486;27;20291;-76
2023/07/05 08:11:04;;;;;;;10.35;9.13;;;20.90;99.90;;;;;;5148805;27;20206;-76
2023/07/05 08:13:31;;;;;;;11.98;9.85;;;20.90;99.90;;;;;;5148816;27;20299;-75
2023/07/05 08:16:00;;;;;;;10.43;9.43;;;20.90;99.90;;;;;;5131037;27;20206;-76
2023/07/05 08:18:28;;;;;;;10.80;9.70;;;20.90;99.90;;;;;;5126239;27;20212;-76
2023/07/05 08:20:57;;;;;;;12.27;10.97;;;20.80;99.90;;;;;;5107263;28;20210;-76
2023/07/05 08:23:24;;;;;;;13.70;11.10;;;20.80;99.90;;;;;;5106910;28;20229;-76
2023/07/05 08:25:54;;;;;;;12.13;10.98;;;20.80;99.90;;;;;;5125415;27;20661;-76
2023/07/05 08:28:22;;;;;;;11.93;9.90;;;20.70;99.90;;;;;;5147994;27;20640;-75
2023/07/05 08:30:53;;;;;;;13.10;10.65;;;20.70;99.90;;;;;;5128532;27;20281;-75
2023/07/05 08:33:21;;;;;;;12.37;10.87;;;20.70;99.90;;;;;;5127596;27;20194;-76
2023/07/05 08:35:48;;;;;;;11.60;10.50;;;20.70;99.90;;;;;;5127122;27;20214;-76
2023/07/05 08:38:18;;;;;;;14.32;11.10;;;20.70;99.90;;;;;;5108403;27;20210;-76
2023/07/05 08:40:50;;;;;;;14.93;11.13;;;20.70;99.90;;;;;;5106948;28;20190;-76
2023/07/05 08:43:31;;;;;;;12.60;10.73;;;20.70;99.90;;;;;;5126898;27;20316;-76
2023/07/05 08:46:04;;;;;;;13.13;11.17;;;20.80;99.90;;;;;;5127594;27;20189;-76
2023/07/05 08:48:33;;;;;;;12.00;10.85;;;20.80;99.90;;;;;;5127046;27;20197;-75
2023/07/05 08:51:01;;;;;;;11.15;10.00;;;20.90;99.90;;;;;;5126937;27;20663;-76
2023/07/05 08:53:30;;;;;;;12.57;10.27;;;20.90;99.90;;;;;;5127101;27;20236;-76
2023/07/05 08:56:01;;;;;;;13.50;9.70;;;21.00;99.90;;;;;;5137133;27;20236;-76
2023/07/05 08:58:39;;;;;;;11.10;10.00;;;21.00;99.90;;;;;;5148157;27;20220;-76
2023/07/05 09:01:10;;;;;;;10.48;9.32;;;21.00;99.90;;;;;;5147325;27;20197;-76
2023/07/05 09:03:37;;;;;;;11.33;9.43;;;21.00;99.90;;;;;;5148016;27;20252;-76
2023/07/05 09:06:15;;;;;;;9.27;8.38;;;21.00;99.90;;;;;;5147235;27;20320;-76
2023/07/05 09:09:13;;;;;;;10.13;8.60;;;21.10;99.90;;;;;;5106077;28;20995;-76
2023/07/05 09:11:52;;;;;;;9.57;8.60;;;21.10;99.90;;;;;;5097315;27;20209;-75
2023/07/05 09:14:30;;;;;;;9.68;8.77;;;21.10;99.90;;;;;;5126606;27;20193;-76
2023/07/05 09:17:03;;;;;;;9.82;8.85;;;21.10;99.90;;;;;;5126822;27;20276;-76
2023/07/05 09:19:44;;;;;;;9.48;8.35;;;21.10;99.90;;;;;;5126262;27;20288;-75
2023/07/05 09:22:15;;;;;;;8.48;7.57;;;21.20;99.90;;;;;;5126742;27;20193;-75
2023/07/05 09:24:46;;;;;;;8.85;8.05;;;21.20;99.90;;;;;;5126433;27;20236;-76
2023/07/05 09:27:18;;;;;;;9.25;8.35;;;21.20;99.90;;;;;;5126677;27;20225;-76
2023/07/05 09:29:50;;;;;;;10.10;8.30;;;21.30;99.90;;;;;;5116720;27;20277;-76
2023/07/05 09:32:20;;;;;;;10.18;8.70;;;21.30;99.90;;;;;;5106421;28;20198;-75
2023/07/05 09:34:51;;;;;;;9.18;8.15;;;21.30;99.90;;;;;;5118812;27;20285;-76
2023/07/05 09:37:20;;;;;;;8.75;7.95;;;21.40;99.90;;;;;;5115759;27;20965;-76
2023/07/05 09:40:00;;;;;;;12.70;8.00;;;21.60;99.90;;;;;;5106155;28;20301;-76
2023/07/05 09:42:32;;;;;;;8.73;8.00;;;21.70;99.90;;;;;;5105839;28;20277;-75
2023/07/05 09:44:59;;;;;;;9.63;8.73;;;21.80;99.90;;;;;;5105718;28;20222;-75
2023/07/05 09:47:26;;;;;;;9.40;8.48;;;21.90;99.90;;;;;;5105569;28;20255;-76
2023/07/05 09:49:53;;;;;;;10.93;8.40;;;22.00;99.90;;;;;;5105904;28;20585;-75
2023/07/05 09:52:27;;;;;;;9.55;8.70;;;22.10;99.90;;;;;;5117389;27;20224;-75
2023/07/05 09:55:02;;;;;;;10.98;7.93;;;22.10;99.90;;;;;;5128060;27;20200;-75
2023/07/05 09:57:29;;;;;;;9.85;8.13;;;22.20;99.90;;;;;;5146704;27;20601;-76
2023/07/05 10:00:05;;;;;;;12.27;7.78;;;22.20;99.90;;;;;;5147419;27;20261;-75
2023/07/05 10:02:32;;;;;;;8.55;7.70;;;22.30;99.90;;;;;;5147331;27;20193;-76
2023/07/05 10:05:13;;;;;;;10.05;7.80;;;22.20;99.90;;;;;;5147030;27;20288;-76
2023/07/05 10:07:53;;;;;;;8.45;7.65;;;22.20;99.90;;;;;;5132778;27;20205;-75
2023/07/05 10:10:26;;;;;;;10.70;7.68;;;22.30;99.90;;;;;;5125871;27;20269;-75
2023/07/05 10:13:01;;;;;;;7.95;7.15;;;22.50;99.90;;;;;;5107963;28;20206;-76
2023/07/05 10:15:28;;;;;;;7.50;6.63;;;22.50;99.90;;;;;;5105297;28;20284;-76
2023/07/05 10:17:57;;;;;;;7.10;6.40;;;22.60;99.90;;;;;;5105422;28;20296;-75
2023/07/05 10:20:26;;;;;;;10.73;7.75;;;22.70;99.90;;;;;;5105411;28;20212;-75
2023/07/05 10:23:05;;;;;;;8.00;7.25;;;22.80;99.90;;;;;;5104754;28;20224;-76
2023/07/05 10:25:36;;;;;;;7.07;6.45;;;22.80;99.90;;;;;;5105141;28;20305;-76
2023/07/05 10:28:05;;;;;;;7.32;6.70;;;22.80;99.90;;;;;;5105219;28;20200;-76
2023/07/05 10:30:47;;;;;;;6.93;6.32;;;22.80;99.90;;;;;;5105266;28;20293;-76
2023/07/05 10:33:17;;;;;;;6.72;6.03;;;22.80;99.90;;;;;;5105623;28;20384;-76
2023/07/05 10:35:53;;;;;;;6.97;6.13;;;22.80;99.90;;;;;;5104711;28;20202;-76
2023/07/05 10:38:25;;;;;;;6.25;5.70;;;22.80;99.90;;;;;;5105151;28;20190;-75
2023/07/05 10:40:56;;;;;;;6.63;5.88;;;22.80;99.90;;;;;;5105691;28;20198;-76
2023/07/05 10:43:24;;;;;;;6.65;5.60;;;22.70;99.90;;;;;;5105350;28;20193;-76
2023/07/05 10:45:51;;;;;;;5.65;5.22;;;22.70;99.90;;;;;;5105262;28;20939;-76
2023/07/05 10:48:25;;;;;;;7.95;5.57;;;22.70;99.90;;;;;;5104975;28;20206;-76
2023/07/05 10:50:53;;;;;;;5.75;4.47;;;22.60;99.90;;;;;;5105113;28;20185;-76
2023/07/05 10:53:24;;;;;;;5.55;5.03;;;22.60;99.90;;;;;;5125092;28;20292;-75
2023/07/05 10:56:00;;;;;;;5.35;4.85;;;22.60;99.90;;;;;;5134787;27;20329;-76
2023/07/05 10:58:36;;;;;;;7.97;5.20;;;22.50;99.90;;;;;;5146343;27;20625;-76
2023/07/05 11:01:13;;;;;;;6.75;4.53;;;22.50;99.90;;;;;;5149166;27;20206;-76
2023/07/05 11:03:45;;;;;;;5.90;4.35;;;22.50;99.90;;;;;;5141761;27;20217;-75
2023/07/05 11:06:13;;;;;;;7.40;4.55;;;22.50;99.90;;;;;;5129376;27;20284;-76
2023/07/05 11:08:43;;;;;;;4.75;4.15;;;22.60;99.90;;;;;;5115270;27;20214;-76
2023/07/05 11:11:16;;;;;;;3.70;3.40;;;22.60;99.90;;;;;;5108899;28;20670;-76
2023/07/05 11:13:44;;;;;;;3.65;3.35;;;22.70;99.90;;;;;;5109131;28;20202;-77
2023/07/05 11:16:18;;;;;;;3.70;3.40;;;22.80;99.90;;;;;;5108891;28;20297;-76
2023/07/05 11:18:45;;;;;;;3.40;3.20;;;22.90;99.90;;;;;;5108626;28;20680;-76
2023/07/05 11:21:37;;;;;;;4.13;3.72;;;23.00;99.90;;;;;;5108129;28;20241;-76
2023/07/05 11:24:05;;;;;;;3.80;3.40;;;23.20;99.90;;;;;;5108461;28;20308;-76
2023/07/05 11:26:42;;;;;;;3.40;3.20;;;23.30;99.90;;;;;;5138451;27;20233;-76
2023/07/05 11:29:51;;;;;;;3.70;3.20;;;23.50;99.90;;;;;;5149871;27;20664;-76
2023/07/05 11:32:19;;;;;;;3.75;3.47;;;23.50;99.90;;;;;;5096466;28;20210;-76
2023/07/05 11:34:51;;;;;;;3.95;3.03;;;23.60;99.90;;;;;;5108746;28;20270;-75
2023/07/05 11:37:42;;;;;;;3.38;3.05;;;23.70;99.90;;;;;;5108274;28;20202;-75
2023/07/05 11:40:48;;;;;;;2.92;2.53;;;23.50;99.90;;;;;;5108497;28;20208;-76
2023/07/05 11:43:24;;;;;;;2.72;2.53;;;23.70;99.90;;;;;;5099420;28;20236;-76
2023/07/05 11:45:51;;;;;;;3.08;2.80;;;23.70;99.90;;;;;;5107718;28;20767;-76
2023/07/05 11:48:38;;;;;;;4.28;2.53;;;23.70;99.90;;;;;;5107873;28;20722;-76
2023/07/05 11:51:09;;;;;;;3.78;2.67;;;23.60;99.90;;;;;;5107914;28;20293;-76
2023/07/05 11:53:37;;;;;;;2.85;2.65;;;23.60;99.90;;;;;;5107777;28;20200;-76
2023/07/05 11:56:06;;;;;;;3.30;3.00;;;23.60;99.90;;;;;;5107807;28;20321;-76
2023/07/05 11:58:38;;;;;;;4.28;2.88;;;23.60;99.90;;;;;;5107751;28;20747;-76
2023/07/05 12:01:06;;;;;;;2.80;2.60;;;23.60;99.90;;;;;;5107982;28;20565;-76
2023/07/05 12:03:41;;;;;;;3.28;2.72;;;23.50;99.90;;;;;;5113903;27;20198;-75
2023/07/05 12:06:17;;;;;;;3.35;2.50;;;23.50;99.90;;;;;;5108328;27;20230;-75
2023/07/05 12:08:48;;;;;;;2.60;2.38;;;23.50;99.90;;;;;;5127902;27;20204;-75
2023/07/05 12:11:26;;;;;;;2.85;2.67;;;23.70;99.90;;;;;;5128035;27;20303;-76
2023/07/05 12:14:01;;;;;;;4.45;3.00;;;24.10;99.90;;;;;;5127773;27;20199;-76
2023/07/05 12:16:29;;;;;;;2.95;2.72;;;24.30;99.90;;;;;;5127735;27;20225;-76
2023/07/05 12:18:56;;;;;;;3.38;2.78;;;24.30;99.90;;;;;;5127740;27;20735;-76
2023/07/05 12:21:23;;;;;;;2.58;2.38;;;24.30;99.90;;;;;;5127728;27;20305;-75
2023/07/05 12:23:54;;;;;;;6.72;2.70;;;24.20;99.90;;;;;;5128036;27;20304;-76
2023/07/05 12:26:26;;;;;;;4.20;2.70;;;24.10;99.90;;;;;;5137776;27;20270;-76
2023/07/05 12:28:55;;;;;;;4.30;2.63;;;24.10;99.90;;;;;;5124799;27;20282;-76
2023/07/05 12:31:25;;;;;;;2.78;2.58;;;24.00;99.90;;;;;;5107201;28;20231;-76
2023/07/05 12:33:57;;;;;;;3.15;2.50;;;24.00;99.90;;;;;;5106788;28;20217;-76
2023/07/05 12:36:25;;;;;;;2.67;2.47;;;24.00;99.90;;;;;;5109667;27;20205;-76
2023/07/05 12:39:06;;;;;;;2.95;2.20;;;24.00;99.90;;;;;;5127275;27;20201;-76
2023/07/05 12:41:33;;;;;;;2.60;2.40;;;24.00;99.90;;;;;;5127233;27;20194;-76
2023/07/05 12:44:03;;;;;;;3.78;2.40;;;24.10;99.90;;;;;;5126921;27;20293;-76
2023/07/05 12:46:32;;;;;;;2.20;2.10;;;24.10;99.90;;;;;;5127460;27;20334;-76
2023/07/05 12:49:10;;;;;;;2.63;2.20;;;24.10;99.90;;;;;;5127729;27;20201;-76
2023/07/05 12:51:48;;;;;;;2.63;2.00;;;24.10;99.90;;;;;;5127153;27;20186;-76
2023/07/05 12:54:15;;;;;;;2.10;2.00;;;24.20;99.90;;;;;;5127239;27;20213;-76
2023/07/05 12:56:45;;;;;;;4.35;2.10;;;24.20;99.90;;;;;;5143518;27;20236;-76
2023/07/05 12:59:25;;;;;;;2.28;2.17;;;24.20;99.90;;;;;;5121831;27;20385;-75
2023/07/05 13:01:53;;;;;;;3.63;2.45;;;23.80;99.90;;;;;;5117014;27;20212;-76